Time;durP1;ratioP1;P1;durP2;ratioP2;P2;SDS_P1;SDS_P2;PMS_P1;PMS_P2;Temp;Humidity;BMP_temperature;BMP_pressure;BME280_temperature;BME280_humidity;BME280_pressure;Samples;Min_cycle;Max_cycle;Signal;HPM_P1;HPM_P2
2020/12/10 00:00:23;;;;;;;;;;;1.70;99.90;;;;;;5052308;28;20280;-85
2020/12/10 00:02:48;;;;;;;;;;;1.70;99.90;;;;;;5053374;28;19916;-85
2020/12/10 00:05:14;;;;;;;;;;;1.60;99.90;;;;;;5043759;28;19931;-85
2020/12/10 00:07:39;;;;;;;;;;;1.60;99.90;;;;;;5053362;28;19913;-87
2020/12/10 00:10:08;;;;;;;;;;;1.70;99.90;;;;;;5052250;28;19908;-85
2020/12/10 00:12:38;;;;;;;;;;;1.70;99.90;;;;;;5043277;28;20283;-86
2020/12/10 00:15:04;;;;;;;;;;;1.70;99.90;;;;;;5038348;28;19920;-86
2020/12/10 00:17:29;;;;;;;;;;;1.70;99.90;;;;;;5046359;28;19913;-86
2020/12/10 00:19:55;;;;;;;;;;;1.70;99.90;;;;;;5040484;28;19909;-85
2020/12/10 00:22:22;;;;;;;;;;;1.70;99.90;;;;;;5050816;28;19909;-85
2020/12/10 00:24:47;;;;;;;;;;;1.70;99.90;;;;;;5050192;28;20400;-86
2020/12/10 00:27:14;;;;;;;;;;;1.60;99.90;;;;;;5049676;28;19956;-85
2020/12/10 00:29:40;;;;;;;;;;;1.60;99.90;;;;;;5051580;28;19909;-86
2020/12/10 00:32:05;;;;;;;;;;;1.60;99.90;;;;;;5050206;28;19916;-86
2020/12/10 00:34:30;;;;;;;;;;;1.60;99.90;;;;;;5050296;28;20265;-86
2020/12/10 00:36:56;;;;;;;;;;;1.70;99.90;;;;;;5050048;28;19912;-85
2020/12/10 00:39:22;;;;;;;;;;;1.70;99.90;;;;;;5043230;28;19944;-86
2020/12/10 00:41:52;;;;;;;;;;;1.70;99.90;;;;;;5052960;28;20011;-86
2020/12/10 00:44:17;;;;;;;;;;;1.70;99.90;;;;;;5051464;28;19913;-85
2020/12/10 00:46:43;;;;;;;;;;;1.70;99.90;;;;;;5051449;28;19913;-85
2020/12/10 00:49:08;;;;;;;;;;;1.80;99.90;;;;;;5052749;28;19999;-85
2020/12/10 00:51:33;;;;;;;;;;;1.70;99.90;;;;;;5051590;28;20287;-85
2020/12/10 00:53:59;;;;;;;;;;;1.80;99.90;;;;;;5051527;28;20039;-85
2020/12/10 00:56:24;;;;;;;;;;;1.80;99.90;;;;;;5051340;28;19909;-85
2020/12/10 00:58:50;;;;;;;;;;;1.80;99.90;;;;;;5051468;28;20379;-86
2020/12/10 01:01:15;;;;;;;;;;;1.70;99.90;;;;;;5051342;28;19970;-86
2020/12/10 01:03:41;;;;;;;;;;;1.80;99.90;;;;;;5052659;28;19909;-86
2020/12/10 01:06:10;;;;;;;;;;;1.70;99.90;;;;;;5051224;28;20326;-85
2020/12/10 01:08:36;;;;;;;;;;;1.70;99.90;;;;;;5050862;28;19952;-86
2020/12/10 01:11:01;;;;;;;;;;;1.70;99.90;;;;;;5037713;28;19955;-86
2020/12/10 01:13:26;;;;;;;;;;;1.70;99.90;;;;;;5031383;28;19909;-86
2020/12/10 01:15:53;;;;;;;;;;;1.60;99.90;;;;;;5031190;28;19909;-86
2020/12/10 01:18:18;;;;;;;;;;;1.60;99.90;;;;;;5031222;28;19920;-86
2020/12/10 01:20:44;;;;;;;;;;;1.60;99.90;;;;;;5031276;28;20291;-86
2020/12/10 01:23:09;;;;;;;;;;;1.60;99.90;;;;;;5031212;28;20011;-86
2020/12/10 01:25:34;;;;;;;;;;;1.60;99.90;;;;;;5031153;28;19916;-86
2020/12/10 01:28:00;;;;;;;;;;;1.60;99.90;;;;;;5031347;28;19909;-86
2020/12/10 01:30:25;;;;;;;;;;;1.60;99.90;;;;;;5032351;28;20323;-85
2020/12/10 01:32:51;;;;;;;;;;;1.70;99.90;;;;;;5031144;28;19909;-85
2020/12/10 01:35:16;;;;;;;;;;;1.70;99.90;;;;;;5032422;28;19952;-85
2020/12/10 01:37:42;;;;;;;;;;;1.60;99.90;;;;;;5037476;28;20430;-85
2020/12/10 01:40:07;;;;;;;;;;;1.60;99.90;;;;;;5040898;28;19960;-85
2020/12/10 01:42:35;;;;;;;;;;;1.60;99.90;;;;;;5035164;28;19913;-86
2020/12/10 01:45:00;;;;;;;;;;;1.60;99.90;;;;;;5035058;28;19924;-85
2020/12/10 01:47:27;;;;;;;;;;;1.60;99.90;;;;;;5034812;28;20268;-85
2020/12/10 01:49:53;;;;;;;;;;;1.60;99.90;;;;;;5034889;28;20004;-86
2020/12/10 01:52:18;;;;;;;;;;;1.60;99.90;;;;;;5036185;28;19944;-86
2020/12/10 01:54:44;;;;;;;;;;;1.60;99.90;;;;;;5035277;28;19916;-86
2020/12/10 01:57:09;;;;;;;;;;;1.60;99.90;;;;;;5034507;28;19914;-86
2020/12/10 01:59:35;;;;;;;;;;;1.50;99.90;;;;;;5036018;28;19953;-85
2020/12/10 02:02:00;;;;;;;;;;;1.50;99.90;;;;;;5034762;28;19916;-85
2020/12/10 02:04:33;;;;;;;;;;;1.50;99.90;;;;;;5034679;28;19909;-85
2020/12/10 02:07:02;;;;;;;;;;;1.50;99.90;;;;;;5039070;28;19931;-85
2020/12/10 02:09:28;;;;;;;;;;;1.50;99.90;;;;;;5046053;28;19910;-86
2020/12/10 02:11:53;;;;;;;;;;;1.50;99.90;;;;;;5054579;28;19912;-86
2020/12/10 02:14:19;;;;;;;;;;;1.60;99.90;;;;;;5055736;28;19909;-86
2020/12/10 02:16:44;;;;;;;;;;;1.60;99.90;;;;;;5053677;28;19917;-86
2020/12/10 02:19:10;;;;;;;;;;;1.60;99.90;;;;;;5054350;28;20349;-86
2020/12/10 02:21:36;;;;;;;;;;;1.60;99.90;;;;;;5054729;28;19915;-87
2020/12/10 02:24:01;;;;;;;;;;;1.50;99.90;;;;;;5054119;28;19909;-86
2020/12/10 02:26:27;;;;;;;;;;;1.50;99.90;;;;;;5053898;28;19932;-86
2020/12/10 02:28:59;;;;;;;;;;;1.50;99.90;;;;;;5054023;28;19916;-85
2020/12/10 02:31:26;;;;;;;;;;;1.40;99.90;;;;;;5054101;28;20007;-85
2020/12/10 02:33:56;;;;;;;;;;;1.50;99.90;;;;;;5054088;28;19909;-85
2020/12/10 02:36:22;;;;;;;;;;;1.50;99.90;;;;;;5054129;28;19915;-85
2020/12/10 02:38:47;;;;;;;;;;;1.50;99.90;;;;;;5049081;28;20288;-86
2020/12/10 02:41:13;;;;;;;;;;;1.50;99.90;;;;;;5050350;28;19958;-85
2020/12/10 02:43:39;;;;;;;;;;;1.40;99.90;;;;;;5053881;28;20004;-86
2020/12/10 02:46:05;;;;;;;;;;;1.40;99.90;;;;;;5053483;28;20394;-86
2020/12/10 02:48:31;;;;;;;;;;;1.40;99.90;;;;;;5053662;28;20275;-86
2020/12/10 02:51:00;;;;;;;;;;;1.40;99.90;;;;;;5053294;28;19909;-85
2020/12/10 02:53:26;;;;;;;;;;;1.40;99.90;;;;;;5053665;28;20279;-85
2020/12/10 02:55:52;;;;;;;;;;;1.50;99.90;;;;;;5053408;28;20291;-86
2020/12/10 02:58:17;;;;;;;;;;;1.50;99.90;;;;;;5053420;28;19913;-86
2020/12/10 03:00:42;;;;;;;;;;;1.50;99.90;;;;;;5053578;28;19913;-86
2020/12/10 03:03:08;;;;;;;;;;;1.50;99.90;;;;;;5053652;28;19909;-85
2020/12/10 03:05:33;;;;;;;;;;;1.50;99.90;;;;;;5053545;28;19909;-85
2020/12/10 03:07:59;;;;;;;;;;;1.50;99.90;;;;;;5050138;28;20422;-85
2020/12/10 03:10:24;;;;;;;;;;;1.50;99.90;;;;;;5041514;28;19932;-87
2020/12/10 03:12:50;;;;;;;;;;;1.50;99.90;;;;;;5034608;28;19913;-85
2020/12/10 03:15:15;;;;;;;;;;;1.50;99.90;;;;;;5033555;28;19952;-85
2020/12/10 03:17:41;;;;;;;;;;;1.50;99.90;;;;;;5033202;28;19921;-86
2020/12/10 03:20:06;;;;;;;;;;;1.50;99.90;;;;;;5033281;28;19944;-86
2020/12/10 03:22:32;;;;;;;;;;;1.50;99.90;;;;;;5033192;28;19949;-85
2020/12/10 03:24:57;;;;;;;;;;;1.50;99.90;;;;;;5033362;28;19909;-85
2020/12/10 03:27:23;;;;;;;;;;;1.50;99.90;;;;;;5032900;28;19937;-86
2020/12/10 03:29:48;;;;;;;;;;;1.50;99.90;;;;;;5033328;28;19910;-87
2020/12/10 03:32:13;;;;;;;;;;;1.50;99.90;;;;;;5032956;28;19920;-86
2020/12/10 03:34:39;;;;;;;;;;;1.50;99.90;;;;;;5032990;28;19916;-85
2020/12/10 03:37:04;;;;;;;;;;;1.50;99.90;;;;;;5038058;28;19913;-85
2020/12/10 03:39:30;;;;;;;;;;;1.50;99.90;;;;;;5044302;28;19924;-86
2020/12/10 03:41:57;;;;;;;;;;;1.50;99.90;;;;;;5052790;28;19909;-85
2020/12/10 03:44:22;;;;;;;;;;;1.50;99.90;;;;;;5052743;28;19913;-86
2020/12/10 03:46:48;;;;;;;;;;;1.50;99.90;;;;;;5053884;28;20011;-86
2020/12/10 03:49:14;;;;;;;;;;;1.50;99.90;;;;;;5053800;28;20331;-86
2020/12/10 03:51:40;;;;;;;;;;;1.50;99.90;;;;;;5052673;28;20472;-85
2020/12/10 03:54:05;;;;;;;;;;;1.50;99.90;;;;;;5052637;28;19909;-86
2020/12/10 03:56:31;;;;;;;;;;;1.60;99.90;;;;;;5052376;28;19909;-86
2020/12/10 03:58:58;;;;;;;;;;;1.60;99.90;;;;;;5052297;28;19913;-86
2020/12/10 04:01:24;;;;;;;;;;;1.60;99.90;;;;;;5052435;28;19962;-85
2020/12/10 04:03:49;;;;;;;;;;;1.60;99.90;;;;;;5051741;28;19909;-86
2020/12/10 04:06:15;;;;;;;;;;;1.60;99.90;;;;;;5052410;28;19975;-85
2020/12/10 04:08:40;;;;;;;;;;;1.60;99.90;;;;;;5051957;28;19958;-85
2020/12/10 04:11:06;;;;;;;;;;;1.60;99.90;;;;;;5037934;28;19917;-85
2020/12/10 04:13:31;;;;;;;;;;;1.60;99.90;;;;;;5032222;28;19999;-86
2020/12/10 04:15:59;;;;;;;;;;;1.60;99.90;;;;;;5032006;28;20283;-85
2020/12/10 04:18:25;;;;;;;;;;;1.60;99.90;;;;;;5033256;28;19928;-87
2020/12/10 04:20:51;;;;;;;;;;;1.60;99.90;;;;;;5032136;28;20319;-84
2020/12/10 04:23:16;;;;;;;;;;;1.60;99.90;;;;;;5032127;28;19956;-86
2020/12/10 04:25:42;;;;;;;;;;;1.60;99.90;;;;;;5031870;28;19932;-86
2020/12/10 04:28:07;;;;;;;;;;;1.50;99.90;;;;;;5032206;28;19924;-86
2020/12/10 04:30:33;;;;;;;;;;;1.50;99.90;;;;;;5033173;28;20372;-86
2020/12/10 04:32:58;;;;;;;;;;;1.50;99.90;;;;;;5033204;28;19916;-86
2020/12/10 04:35:24;;;;;;;;;;;1.60;99.90;;;;;;5031846;28;19959;-85
2020/12/10 04:37:49;;;;;;;;;;;1.60;99.90;;;;;;5044304;28;19913;-85
2020/12/10 04:40:15;;;;;;;;;;;1.60;99.90;;;;;;5043132;28;19910;-85
2020/12/10 04:42:42;;;;;;;;;;;1.60;99.90;;;;;;5031787;28;20000;-85
2020/12/10 04:45:07;;;;;;;;;;;1.60;99.90;;;;;;5031701;28;19959;-86
2020/12/10 04:47:33;;;;;;;;;;;1.60;99.90;;;;;;5031591;28;19913;-85
2020/12/10 04:50:03;;;;;;;;;;;1.60;99.90;;;;;;5032935;28;20471;-86
2020/12/10 04:52:29;;;;;;;;;;;1.50;99.90;;;;;;5031739;28;19909;-86
2020/12/10 04:54:55;;;;;;;;;;;1.50;99.90;;;;;;5031589;28;20059;-86
2020/12/10 04:57:20;;;;;;;;;;;1.40;99.90;;;;;;5031351;28;20311;-85
2020/12/10 04:59:46;;;;;;;;;;;1.40;99.90;;;;;;5031386;28;19924;-85
2020/12/10 05:02:12;;;;;;;;;;;1.40;99.90;;;;;;5031460;28;19917;-85
2020/12/10 05:04:41;;;;;;;;;;;1.40;99.90;;;;;;5032710;28;19928;-85
2020/12/10 05:07:06;;;;;;;;;;;1.40;99.90;;;;;;5036669;28;19909;-85
2020/12/10 05:09:33;;;;;;;;;;;1.40;99.90;;;;;;5042936;28;19909;-85
2020/12/10 05:11:59;;;;;;;;;;;1.40;99.90;;;;;;5042535;28;19913;-86
2020/12/10 05:14:24;;;;;;;;;;;1.30;99.90;;;;;;5033065;28;19917;-85
2020/12/10 05:17:09;;;;;;;;;;;1.20;99.90;;;;;;5031230;28;19909;-85
2020/12/10 05:19:34;;;;;;;;;;;1.20;99.90;;;;;;5031206;28;20020;-85
2020/12/10 05:22:01;;;;;;;;;;;1.20;99.90;;;;;;5039476;28;19956;-85
2020/12/10 05:24:27;;;;;;;;;;;1.10;99.90;;;;;;5042676;28;19916;-85
2020/12/10 05:27:12;;;;;;;;;;;1.00;99.90;;;;;;5050743;28;20003;-86
2020/12/10 05:29:37;;;;;;;;;;;1.00;99.90;;;;;;5051000;28;20010;-85
2020/12/10 05:32:02;;;;;;;;;;;1.00;99.90;;;;;;5052267;28;19955;-86
2020/12/10 05:34:28;;;;;;;;;;;1.00;99.90;;;;;;5051088;28;19913;-85
2020/12/10 05:36:53;;;;;;;;;;;0.90;99.90;;;;;;5050779;28;20585;-86
2020/12/10 05:39:19;;;;;;;;;;;0.90;99.90;;;;;;5050889;28;19916;-86
2020/12/10 05:41:52;;;;;;;;;;;0.90;99.90;;;;;;5050843;28;19909;-86
2020/12/10 05:44:21;;;;;;;;;;;0.90;99.90;;;;;;5050827;28;19917;-85
2020/12/10 05:46:49;;;;;;;;;;;0.80;99.90;;;;;;5050512;28;19909;-86
2020/12/10 05:49:15;;;;;;;;;;;0.90;99.90;;;;;;5051568;28;19917;-85
2020/12/10 05:51:45;;;;;;;;;;;0.90;99.90;;;;;;5052155;28;20395;-85
2020/12/10 05:54:11;;;;;;;;;;;0.90;99.90;;;;;;5042678;28;19959;-85
2020/12/10 05:57:00;;;;;;;;;;;0.90;99.90;;;;;;5050731;28;19935;-86
2020/12/10 05:59:26;;;;;;;;;;;0.90;99.90;;;;;;5046351;28;20426;-85
2020/12/10 06:02:02;;;;;;;;;;;0.90;99.90;;;;;;5052145;28;19913;-85
2020/12/10 06:04:29;;;;;;;;;;;0.90;99.90;;;;;;5050788;28;19909;-85
2020/12/10 06:06:59;;;;;;;;;;;0.80;99.90;;;;;;5051814;28;19963;-85
2020/12/10 06:09:24;;;;;;;;;;;0.90;99.90;;;;;;5050633;28;19956;-86
2020/12/10 06:11:59;;;;;;;;;;;0.90;99.90;;;;;;5050795;28;19934;-86
2020/12/10 06:14:24;;;;;;;;;;;0.80;99.90;;;;;;5050728;28;20359;-86
2020/12/10 06:17:03;;;;;;;;;;;0.80;99.90;;;;;;5050559;28;19909;-86
2020/12/10 06:19:32;;;;;;;;;;;0.80;99.90;;;;;;5050721;28;19920;-86
2020/12/10 06:21:58;;;;;;;;;;;0.90;99.90;;;;;;5044708;28;19993;-86
2020/12/10 06:24:23;;;;;;;;;;;0.90;99.90;;;;;;5040098;28;19913;-86
2020/12/10 06:26:49;;;;;;;;;;;0.90;99.90;;;;;;5033094;28;19909;-86
2020/12/10 06:29:18;;;;;;;;;;;0.80;99.90;;;;;;5035625;28;19939;-85
2020/12/10 06:32:01;;;;;;;;;;;0.80;99.90;;;;;;5034305;28;19962;-85
2020/12/10 06:34:43;;;;;;;;;;;0.80;99.90;;;;;;5034498;28;19952;-86
2020/12/10 06:37:16;;;;;;;;;;;0.80;99.90;;;;;;5034218;28;19959;-87
2020/12/10 06:39:42;;;;;;;;;;;0.70;99.90;;;;;;5034150;28;19909;-85
2020/12/10 06:42:07;;;;;;;;;;;0.70;99.90;;;;;;5034182;28;19967;-86
2020/12/10 06:44:34;;;;;;;;;;;0.70;99.90;;;;;;5039464;28;19986;-86
2020/12/10 06:46:59;;;;;;;;;;;0.70;99.90;;;;;;5045463;28;19913;-86
2020/12/10 06:49:29;;;;;;;;;;;0.80;99.90;;;;;;5046436;28;19920;-86
2020/12/10 06:52:14;;;;;;;;;;;0.80;99.90;;;;;;5035980;28;20322;-86
2020/12/10 06:54:59;;;;;;;;;;;0.90;99.90;;;;;;5053769;28;19909;-86
2020/12/10 06:57:24;;;;;;;;;;;0.90;99.90;;;;;;5053521;28;19912;-86
2020/12/10 06:59:52;;;;;;;;;;;0.90;99.90;;;;;;5053859;28;19913;-86
2020/12/10 07:02:19;;;;;;;;;;;0.90;99.90;;;;;;5053725;28;19916;-85
2020/12/10 07:04:50;;;;;;;;;;;1.00;99.90;;;;;;5053619;28;20329;-85
2020/12/10 07:07:20;;;;;;;;;;;1.00;99.90;;;;;;5053407;28;19912;-86
2020/12/10 07:09:49;;;;;;;;;;;1.00;99.90;;;;;;5053459;28;19992;-86
2020/12/10 07:12:22;;;;;;;;;;;1.00;99.90;;;;;;5053800;28;20009;-86
2020/12/10 07:14:50;;;;;;;;;;;1.10;99.90;;;;;;5053530;28;19909;-86
2020/12/10 07:17:16;;;;;;;;;;;1.10;99.90;;;;;;5053370;28;19913;-85
2020/12/10 07:19:41;;;;;;;;;;;1.20;99.90;;;;;;5053236;28;19923;-86
2020/12/10 07:22:07;;;;;;;;;;;1.10;99.90;;;;;;5044447;28;19909;-86
2020/12/10 07:24:32;;;;;;;;;;;1.10;99.90;;;;;;5044943;28;19932;-86
2020/12/10 07:26:57;;;;;;;;;;;1.10;99.90;;;;;;5053252;28;20275;-86
2020/12/10 07:29:23;;;;;;;;;;;1.10;99.90;;;;;;5033733;28;19924;-86
2020/12/10 07:32:07;;;;;;;;;;;1.00;99.90;;;;;;5033286;28;19909;-88
2020/12/10 07:34:43;;;;;;;;;;;1.10;99.90;;;;;;5036674;28;19912;-87
2020/12/10 07:37:11;;;;;;;;;;;1.00;99.90;;;;;;5038823;28;19920;-87
2020/12/10 07:39:37;;;;;;;;;;;1.00;99.90;;;;;;5041439;28;19909;-88
2020/12/10 07:42:02;;;;;;;;;;;1.00;99.90;;;;;;5033005;28;19929;-87
2020/12/10 07:44:29;;;;;;;;;;;1.10;99.90;;;;;;5033006;28;19921;-87
2020/12/10 07:47:09;;;;;;;;;;;1.10;99.90;;;;;;5032952;28;19916;-88
2020/12/10 07:49:34;;;;;;;;;;;1.20;99.90;;;;;;5032809;28;19909;-87
2020/12/10 07:52:07;;;;;;;;;;;1.10;99.90;;;;;;5037520;28;19909;-87
2020/12/10 07:54:49;;;;;;;;;;;1.10;99.90;;;;;;5040958;28;19917;-87
2020/12/10 07:57:23;;;;;;;;;;;1.00;99.90;;;;;;5033773;28;19913;-88
2020/12/10 07:59:52;;;;;;;;;;;1.10;99.90;;;;;;5032936;28;19909;-88
2020/12/10 08:02:21;;;;;;;;;;;1.10;99.90;;;;;;5032653;28;19909;-88
2020/12/10 08:04:46;;;;;;;;;;;1.10;99.90;;;;;;5032599;28;19959;-87
2020/12/10 08:07:12;;;;;;;;;;;1.10;99.90;;;;;;5033732;28;19910;-88
2020/12/10 08:09:37;;;;;;;;;;;1.10;99.90;;;;;;5032752;28;19958;-88
2020/12/10 08:12:13;;;;;;;;;;;1.00;99.90;;;;;;5032729;28;20019;-88
2020/12/10 08:14:39;;;;;;;;;;;1.00;99.90;;;;;;5032716;28;19909;-86
2020/12/10 08:17:05;;;;;;;;;;;1.00;99.90;;;;;;5035077;28;19908;-88
2020/12/10 08:19:31;;;;;;;;;;;1.00;99.90;;;;;;5051712;28;20385;-88
2020/12/10 08:21:57;;;;;;;;;;;0.90;99.90;;;;;;5044004;28;19915;-88
2020/12/10 08:24:42;;;;;;;;;;;1.00;99.90;;;;;;5052323;28;19909;-88
2020/12/10 08:27:11;;;;;;;;;;;0.90;99.90;;;;;;5051459;28;20327;-87
2020/12/10 08:29:37;;;;;;;;;;;0.90;99.90;;;;;;5053383;28;20364;-86
2020/12/10 08:32:12;;;;;;;;;;;0.90;99.90;;;;;;5052107;28;19980;-87
2020/12/10 08:34:38;;;;;;;;;;;0.80;99.90;;;;;;5052165;28;19959;-87
2020/12/10 08:37:08;;;;;;;;;;;0.90;99.90;;;;;;5051804;28;19912;-86
2020/12/10 08:39:35;;;;;;;;;;;0.90;99.90;;;;;;5032605;28;20399;-87
2020/12/10 08:42:01;;;;;;;;;;;0.90;99.90;;;;;;5032477;28;19909;-87
2020/12/10 08:44:42;;;;;;;;;;;0.90;99.90;;;;;;5042237;28;19960;-87
2020/12/10 08:47:07;;;;;;;;;;;1.00;99.90;;;;;;5051063;28;20429;-87
2020/12/10 08:49:33;;;;;;;;;;;1.10;99.90;;;;;;5048794;28;19917;-88
2020/12/10 08:51:58;;;;;;;;;;;1.10;99.90;;;;;;5040296;28;19909;-88
2020/12/10 08:54:24;;;;;;;;;;;1.10;99.90;;;;;;5032257;28;19910;-87
2020/12/10 08:56:58;;;;;;;;;;;1.20;99.90;;;;;;5031691;28;19958;-86
2020/12/10 08:59:24;;;;;;;;;;;1.20;99.90;;;;;;5031992;28;19917;-86
2020/12/10 09:01:52;;;;;;;;;;;1.10;99.90;;;;;;5031777;28;20383;-86
2020/12/10 09:04:18;;;;;;;;;;;1.20;99.90;;;;;;5031862;28;19952;-86
2020/12/10 09:06:44;;;;;;;;;;;1.20;99.90;;;;;;5031694;28;20018;-86
2020/12/10 09:09:09;;;;;;;;;;;1.30;99.90;;;;;;5031757;28;19909;-86
2020/12/10 09:11:35;;;;;;;;;;;1.40;99.90;;;;;;5032872;28;19941;-87
2020/12/10 09:14:01;;;;;;;;;;;1.40;99.90;;;;;;5031646;28;20461;-86
2020/12/10 09:16:27;;;;;;;;;;;1.50;99.90;;;;;;5031517;28;20000;-86
2020/12/10 09:18:52;;;;;;;;;;;1.50;99.90;;;;;;5031587;28;20364;-86
2020/12/10 09:21:18;;;;;;;;;;;1.60;99.90;;;;;;5041927;28;19915;-86
2020/12/10 09:23:44;;;;;;;;;;;1.60;99.90;;;;;;5031519;28;20422;-86
2020/12/10 09:26:10;;;;;;;;;;;1.60;99.90;;;;;;5031697;28;20339;-87
2020/12/10 09:28:36;;;;;;;;;;;1.60;99.90;;;;;;5031431;28;19915;-86
2020/12/10 09:31:01;;;;;;;;;;;1.70;99.90;;;;;;5031469;28;19913;-86
2020/12/10 09:33:27;;;;;;;;;;;1.70;99.90;;;;;;5050997;28;19909;-87
2020/12/10 09:35:52;;;;;;;;;;;1.80;99.90;;;;;;5052328;28;20428;-87
2020/12/10 09:38:18;;;;;;;;;;;1.90;99.90;;;;;;5046315;28;19927;-87
2020/12/10 09:40:43;;;;;;;;;;;1.90;99.90;;;;;;5032689;28;19972;-87
2020/12/10 09:43:09;;;;;;;;;;;2.00;99.90;;;;;;5030584;28;19960;-87
2020/12/10 09:45:34;;;;;;;;;;;2.00;99.90;;;;;;5031355;28;19923;-87
2020/12/10 09:48:01;;;;;;;;;;;2.10;99.90;;;;;;5031201;28;20409;-85
2020/12/10 09:50:32;;;;;;;;;;;2.10;99.90;;;;;;5035846;28;20397;-86
2020/12/10 09:58:23;;;;;;;;;;;2.00;99.90;;;;;;5032759;28;19913;-87
2020/12/10 10:00:58;;;;;;;;;;;2.00;99.90;;;;;;5033909;28;19909;-87
2020/12/10 10:03:25;;;;;;;;;;;2.10;99.90;;;;;;5035114;28;19913;-88
2020/12/10 10:06:43;;;;;;;;;;;2.20;99.90;;;;;;5033459;28;20514;-88
2020/12/10 10:09:12;;;;;;;;;;;2.30;99.90;;;;;;5034852;28;19960;-88
2020/12/10 10:11:37;;;;;;;;;;;2.30;99.90;;;;;;5035008;28;19961;-87
2020/12/10 10:14:03;;;;;;;;;;;2.30;99.90;;;;;;5034922;28;19914;-87
2020/12/10 10:16:28;;;;;;;;;;;2.30;99.90;;;;;;5034600;28;20289;-87
2020/12/10 10:19:02;;;;;;;;;;;2.30;99.90;;;;;;5034816;28;19917;-88
2020/12/10 10:21:28;;;;;;;;;;;2.30;99.90;;;;;;5045235;28;19909;-87
2020/12/10 10:23:54;;;;;;;;;;;2.30;99.90;;;;;;5056347;28;19920;-88
2020/12/10 10:26:20;;;;;;;;;;;2.30;99.90;;;;;;5054507;28;20405;-88
2020/12/10 10:28:48;;;;;;;;;;;2.40;99.90;;;;;;5055053;28;20004;-88
2020/12/10 10:31:13;;;;;;;;;;;2.40;99.90;;;;;;5054588;28;20115;-88
2020/12/10 10:33:39;;;;;;;;;;;2.40;99.90;;;;;;5054449;28;19931;-90
2020/12/10 10:36:05;;;;;;;;;;;2.50;99.90;;;;;;5054442;28;19909;-90
2020/12/10 10:38:30;;;;;;;;;;;2.40;99.90;;;;;;5049251;28;19912;-90
2020/12/10 10:40:56;;;;;;;;;;;2.40;99.90;;;;;;5047807;28;19937;-89
2020/12/10 10:43:21;;;;;;;;;;;2.50;99.90;;;;;;5047782;28;19908;-89
2020/12/10 10:45:47;;;;;;;;;;;2.40;99.90;;;;;;5052278;28;19917;-89
2020/12/10 10:48:12;;;;;;;;;;;2.30;99.90;;;;;;5054269;28;20364;-88
2020/12/10 10:50:38;;;;;;;;;;;2.20;99.90;;;;;;5054180;28;19916;-88
2020/12/10 10:53:03;;;;;;;;;;;2.10;99.90;;;;;;5053964;28;20375;-88
2020/12/10 10:55:29;;;;;;;;;;;2.10;99.90;;;;;;5054267;28;20038;-88
2020/12/10 10:57:55;;;;;;;;;;;2.20;99.90;;;;;;5053799;28;20023;-87
2020/12/10 11:00:20;;;;;;;;;;;2.20;99.90;;;;;;5053985;28;20364;-89
2020/12/10 11:02:46;;;;;;;;;;;2.10;99.90;;;;;;5054013;28;20493;-89
2020/12/10 11:05:11;;;;;;;;;;;2.00;99.90;;;;;;5053947;28;19955;-90
2020/12/10 11:07:37;;;;;;;;;;;2.00;99.90;;;;;;5053837;28;19909;-90
2020/12/10 11:10:06;;;;;;;;;;;2.00;99.90;;;;;;5053823;28;19909;-90
2020/12/10 11:12:31;;;;;;;;;;;1.90;99.90;;;;;;5053699;28;19909;-90
2020/12/10 11:14:57;;;;;;;;;;;2.00;99.90;;;;;;5054317;28;20268;-90
2020/12/10 11:17:23;;;;;;;;;;;1.90;99.90;;;;;;5053905;28;19919;-90
2020/12/10 11:19:49;;;;;;;;;;;1.80;99.90;;;;;;5048817;28;19947;-90
2020/12/10 11:22:15;;;;;;;;;;;1.90;99.90;;;;;;5042271;28;19999;-90
2020/12/10 11:24:40;;;;;;;;;;;2.00;99.90;;;;;;5053878;28;19952;-90
2020/12/10 11:27:06;;;;;;;;;;;2.00;99.90;;;;;;5054850;28;19924;-90
2020/12/10 11:29:31;;;;;;;;;;;2.10;99.90;;;;;;5053651;28;19915;-89
2020/12/10 11:31:57;;;;;;;;;;;2.00;99.90;;;;;;5053556;28;19916;-89
2020/12/10 11:34:23;;;;;;;;;;;2.10;99.90;;;;;;5036452;28;19952;-89
2020/12/10 11:36:48;;;;;;;;;;;2.00;99.90;;;;;;5033445;28;19909;-89
2020/12/10 11:39:14;;;;;;;;;;;1.90;99.90;;;;;;5048560;28;20538;-90
2020/12/10 11:41:39;;;;;;;;;;;1.90;99.90;;;;;;5053367;28;19909;-90
2020/12/10 11:44:05;;;;;;;;;;;2.00;99.90;;;;;;5053203;28;19908;-90
2020/12/10 11:46:31;;;;;;;;;;;2.10;99.90;;;;;;5053086;28;19920;-91
2020/12/10 11:48:56;;;;;;;;;;;2.10;99.90;;;;;;5053325;28;19909;-91
2020/12/10 11:51:21;;;;;;;;;;;2.20;99.90;;;;;;5053447;28;19915;-90
2020/12/10 11:53:50;;;;;;;;;;;2.30;99.90;;;;;;5054034;28;19916;-90
2020/12/10 11:56:16;;;;;;;;;;;2.30;99.90;;;;;;5053838;28;19909;-90
2020/12/10 11:58:41;;;;;;;;;;;2.30;99.90;;;;;;5053601;28;19920;-90
2020/12/10 12:01:07;;;;;;;;;;;2.20;99.90;;;;;;5055309;28;19909;-90
2020/12/10 12:03:32;;;;;;;;;;;2.20;99.90;;;;;;5056927;28;20007;-90
2020/12/10 12:05:58;;;;;;;;;;;2.30;99.90;;;;;;5056019;28;19963;-91
2020/12/10 12:08:27;;;;;;;;;;;2.30;99.90;;;;;;5056582;28;19912;-91
2020/12/10 12:10:53;;;;;;;;;;;2.40;99.90;;;;;;5061661;28;19916;-91
2020/12/10 12:13:19;;;;;;;;;;;2.40;99.90;;;;;;5046378;28;20353;-91
2020/12/10 12:15:44;;;;;;;;;;;2.50;99.90;;;;;;5044023;28;19915;-91
2020/12/10 12:18:10;;;;;;;;;;;2.50;99.90;;;;;;5048022;28;19920;-91
2020/12/10 12:20:35;;;;;;;;;;;2.50;99.90;;;;;;5049788;28;19909;-91
2020/12/10 12:23:01;;;;;;;;;;;2.40;99.90;;;;;;5055151;28;19905;-92
2020/12/10 12:25:28;;;;;;;;;;;2.40;99.90;;;;;;5041169;28;19909;-90
2020/12/10 12:28:00;;;;;;;;;;;2.40;99.90;;;;;;5037263;28;19920;-90
2020/12/10 12:30:26;;;;;;;;;;;2.40;99.90;;;;;;5037314;28;19919;-89
2020/12/10 12:32:51;;;;;;;;;;;2.40;99.90;;;;;;5036775;28;19949;-89
2020/12/10 12:35:17;;;;;;;;;;;2.40;99.90;;;;;;5045603;28;19909;-90
2020/12/10 12:37:42;;;;;;;;;;;2.40;99.90;;;;;;5044883;28;19972;-88
2020/12/10 12:40:15;;;;;;;;;;;2.30;99.90;;;;;;5054827;28;19909;-90
2020/12/10 12:42:41;;;;;;;;;;;2.30;99.90;;;;;;5042649;28;19985;-90
2020/12/10 12:45:06;;;;;;;;;;;2.30;99.90;;;;;;5033936;28;19968;-90
2020/12/10 12:47:59;;;;;;;;;;;2.30;99.90;;;;;;5031264;28;19909;-90
2020/12/10 12:50:47;;;;;;;;;;;2.30;99.90;;;;;;5032979;28;19931;-90
2020/12/10 12:53:15;;;;;;;;;;;2.30;99.90;;;;;;5040237;28;19962;-90
2020/12/10 12:55:59;;;;;;;;;;;2.30;99.90;;;;;;5032838;28;19910;-89
2020/12/10 12:59:01;;;;;;;;;;;;;;;;;;;;;
2020/12/10 13:01:27;;;;;;;;;;;2.40;99.90;;;;;;5032948;28;19909;-89
2020/12/10 13:03:52;;;;;;;;;;;2.40;99.90;;;;;;5031808;28;20008;-91
2020/12/10 13:06:18;;;;;;;;;;;2.50;99.90;;;;;;5030988;28;19909;-89
2020/12/10 13:08:54;;;;;;;;;;;;;;;;;;;;;
2020/12/10 13:11:19;;;;;;;;;;;2.50;99.90;;;;;;5033040;28;19971;-89
2020/12/10 13:13:45;;;;;;;;;;;2.50;99.90;;;;;;5051628;28;19969;-89
2020/12/10 13:16:10;;;;;;;;;;;2.60;99.90;;;;;;5040941;28;19909;-89
2020/12/10 13:18:36;;;;;;;;;;;2.60;99.90;;;;;;5040851;28;20012;-88
2020/12/10 13:21:01;;;;;;;;;;;2.60;99.90;;;;;;5032744;28;20399;-88
2020/12/10 13:23:27;;;;;;;;;;;2.50;99.90;;;;;;5030833;28;19917;-89
2020/12/10 13:25:52;;;;;;;;;;;2.60;99.90;;;;;;5030950;28;20055;-89
2020/12/10 13:28:18;;;;;;;;;;;2.60;99.90;;;;;;5030931;28;19913;-89
2020/12/10 13:30:44;;;;;;;;;;;2.60;99.90;;;;;;5030875;28;19920;-89
2020/12/10 13:33:12;;;;;;;;;;;2.60;99.90;;;;;;5043142;28;19909;-89
2020/12/10 13:35:39;;;;;;;;;;;2.60;99.90;;;;;;5052978;28;20003;-90
2020/12/10 13:38:04;;;;;;;;;;;2.50;99.90;;;;;;5052060;28;19964;-89
2020/12/10 13:40:33;;;;;;;;;;;2.50;99.90;;;;;;5043551;28;19936;-89
2020/12/10 13:42:58;;;;;;;;;;;2.50;99.90;;;;;;5034248;28;19913;-89
2020/12/10 13:45:27;;;;;;;;;;;2.60;99.90;;;;;;4991747;28;1318184;-89
2020/12/10 13:47:53;;;;;;;;;;;2.60;99.90;;;;;;5035738;28;19910;-89
2020/12/10 13:50:18;;;;;;;;;;;2.60;99.90;;;;;;5035425;28;20364;-89
2020/12/10 13:52:44;;;;;;;;;;;2.60;99.90;;;;;;5036479;28;20008;-90
2020/12/10 13:55:09;;;;;;;;;;;2.60;99.90;;;;;;5038288;28;19916;-88
2020/12/10 13:57:35;;;;;;;;;;;2.60;99.90;;;;;;5035659;28;19913;-88
2020/12/10 14:00:00;;;;;;;;;;;2.50;99.90;;;;;;5035503;28;20257;-88
2020/12/10 14:02:26;;;;;;;;;;;2.40;99.90;;;;;;5041192;28;19908;-89
2020/12/10 14:04:54;;;;;;;;;;;2.50;99.90;;;;;;5055475;28;20299;-89
2020/12/10 14:07:23;;;;;;;;;;;2.40;99.90;;;;;;5055621;28;20376;-89
2020/12/10 14:09:49;;;;;;;;;;;2.40;99.90;;;;;;5055289;28;19909;-89
2020/12/10 14:12:14;;;;;;;;;;;2.30;99.90;;;;;;5054889;28;20283;-89
2020/12/10 14:14:40;;;;;;;;;;;2.30;99.90;;;;;;5055360;28;20023;-90
2020/12/10 14:17:06;;;;;;;;;;;2.30;99.90;;;;;;5054895;28;19997;-89
2020/12/10 14:19:32;;;;;;;;;;;2.30;99.90;;;;;;5054948;28;20479;-89
2020/12/10 14:21:58;;;;;;;;;;;2.30;99.90;;;;;;5053570;28;19948;-89
2020/12/10 14:24:23;;;;;;;;;;;2.20;99.90;;;;;;5052081;28;19913;-89
2020/12/10 14:26:52;;;;;;;;;;;2.10;99.90;;;;;;5054868;28;19940;-89
2020/12/10 14:29:18;;;;;;;;;;;2.00;99.90;;;;;;5054936;28;19958;-89
2020/12/10 14:31:43;;;;;;;;;;;2.00;99.90;;;;;;5054692;28;19974;-89
2020/12/10 14:34:10;;;;;;;;;;;2.00;99.90;;;;;;5056624;28;19909;-90
2020/12/10 14:36:38;;;;;;;;;;;2.10;99.90;;;;;;5060722;28;19970;-90